SBOSBO PUJ / MDPC
Speedbird OnlineSpeedbird Online PUJ / MDPC

Punta Cana International Airport
02:58 28°C

Location Punta Cana, Dominican Republic
Latitude: 18.567399978599997
Longitude: -68.36340332030001
Web Wikipedia
Altitude 14 Meter / 47 Feet
Distance 6,922 KM / 4,301 Miles
from London.
Time Zone UTC -4 hours (America/Santo_Domingo)
Codes IATA: PUJ
ICAO: MDPC
Currency £1 equals DOP 60.64
Runways
RunwayLength (m)Surface
083100Asphalt
093100Asphalt
263100Asphalt
273100Asphalt
Radio
TypeDescriptionFrequency
A/DAPP119.7
APPLAS AMERICAS APP119.3
ATIS132.85
DLVDELIVERY121.65
GNDGROUND121.9
TWRTWR118.8
Live ATC
METAR MDPC 060600Z 08009KT 9999 FEW018 28/25 Q1013
TAF TAF MDPC 060400Z 0606/0706 07005KT 9999 SCT018 PROB30 0606/0612 7000 -TSRA FEW015CB BKN016 SCT070
Weather As Of 06 Oct 2022 02:58
Description Few clouds
Wind 17 km/h from East (80°)
Cloud Cover 20%
Precipitation Rain: none, Snow: none
Sunrise 06:24
Sunset 18:18
Lounges VIP Lounge, Terminal 2
Rotations During the last 90 days there were
19 flights from ANU
24 flights to ANU
1 flights to LGW


© 2017-2022 Speedbird Online